createdAt,value
2019-01-29T00:00:39.201Z,16.57
2019-01-29T00:03:41.882Z,18.43
2019-01-29T00:06:44.710Z,17.57
2019-01-29T00:09:47.395Z,17.20
2019-01-29T00:12:50.122Z,17.80
2019-01-29T00:15:52.730Z,14.73
2019-01-29T00:18:55.322Z,16.60
2019-01-29T00:21:57.947Z,18.47
2019-01-29T00:25:00.552Z,16.57
2019-01-29T00:28:03.375Z,14.70
2019-01-29T00:31:05.946Z,20.90
2019-01-29T00:34:08.585Z,20.30
2019-01-29T00:37:12.271Z,18.70
2019-01-29T00:40:15.311Z,16.53
2019-01-29T00:43:18.982Z,21.27
2019-01-29T00:46:21.572Z,16.50
2019-01-29T00:49:24.261Z,13.03
2019-01-29T00:52:26.891Z,18.67
2019-01-29T00:55:29.585Z,16.67
2019-01-29T00:58:32.273Z,14.60
2019-01-29T01:01:35.024Z,24.00
2019-01-29T01:04:37.782Z,15.97
2019-01-29T01:07:40.438Z,15.60
2019-01-29T01:10:43.021Z,17.20
2019-01-29T01:13:45.737Z,17.20
2019-01-29T01:16:48.317Z,22.30
2019-01-29T01:19:51.671Z,21.53
2019-01-29T01:22:56.396Z,23.97
2019-01-29T01:25:58.738Z,20.83
2019-01-29T01:29:01.308Z,22.30
2019-01-29T01:32:04.040Z,15.30
2019-01-29T01:35:06.790Z,14.70
2019-01-29T01:38:09.465Z,16.63
2019-01-29T01:41:12.240Z,22.90
2019-01-29T01:44:14.852Z,18.97
2019-01-29T01:47:17.466Z,18.33
2019-01-29T01:50:20.107Z,21.40
2019-01-29T01:53:22.695Z,18.67
2019-01-29T01:56:25.410Z,15.10
2019-01-29T01:59:28.056Z,19.17
2019-01-29T02:02:30.716Z,15.37
2019-01-29T02:05:33.270Z,22.10
2019-01-29T02:08:35.815Z,17.30
2019-01-29T02:11:38.430Z,17.73
2019-01-29T02:14:41.120Z,16.00
2019-01-29T02:17:43.860Z,18.20
2019-01-29T02:20:46.502Z,14.40
2019-01-29T02:23:49.073Z,16.67
2019-01-29T02:26:51.916Z,21.20
2019-01-29T02:29:54.623Z,19.57
2019-01-29T02:32:57.212Z,14.43
2019-01-29T02:35:59.969Z,17.20
2019-01-29T02:39:04.797Z,18.50
2019-01-29T02:42:08.747Z,22.43
2019-01-29T02:45:12.164Z,17.90
2019-01-29T02:48:14.846Z,23.63
2019-01-29T02:51:18.013Z,17.33
2019-01-29T02:54:20.873Z,16.10
2019-01-29T02:57:23.520Z,22.37
2019-01-29T03:00:26.775Z,20.23
2019-01-29T03:03:29.453Z,23.60
2019-01-29T03:06:32.129Z,23.50
2019-01-29T03:09:34.801Z,21.73
2019-01-29T03:12:37.510Z,27.43
2019-01-29T03:15:40.224Z,17.43
2019-01-29T03:18:42.908Z,21.80
2019-01-29T03:21:45.568Z,20.23
2019-01-29T03:24:48.245Z,20.13
2019-01-29T03:27:50.831Z,21.30
2019-01-29T03:30:53.435Z,23.33
2019-01-29T03:33:56.094Z,22.40
2019-01-29T03:36:58.688Z,21.40
2019-01-29T03:40:01.528Z,18.50
2019-01-29T03:43:04.432Z,21.27
2019-01-29T03:46:07.260Z,18.43
2019-01-29T03:49:09.913Z,18.33
2019-01-29T03:52:12.519Z,22.00
2019-01-29T03:55:15.600Z,17.23
2019-01-29T03:58:18.197Z,19.60
2019-01-29T04:01:20.840Z,19.93
2019-01-29T04:04:23.551Z,24.17
2019-01-29T04:07:26.123Z,17.90
2019-01-29T04:10:28.709Z,18.40
2019-01-29T04:13:31.394Z,20.50
2019-01-29T04:16:34.141Z,20.60
2019-01-29T04:19:36.781Z,17.77
2019-01-29T04:22:39.549Z,26.13
2019-01-29T04:25:42.109Z,18.67
2019-01-29T04:28:44.726Z,16.60
2019-01-29T04:31:47.256Z,17.13
2019-01-29T04:34:50.004Z,13.03
2019-01-29T04:37:52.669Z,21.00
2019-01-29T04:40:55.317Z,13.73
2019-01-29T04:43:57.895Z,16.47
2019-01-29T04:47:00.527Z,15.70
2019-01-29T04:50:04.346Z,16.50
2019-01-29T04:53:06.996Z,18.73
2019-01-29T04:56:09.734Z,25.17
2019-01-29T04:59:12.409Z,16.70
2019-01-29T05:02:17.208Z,20.90
2019-01-29T05:05:20.557Z,17.60
2019-01-29T05:08:23.319Z,32.10
2019-01-29T05:11:25.982Z,26.73
2019-01-29T05:14:29.454Z,24.50
2019-01-29T05:17:32.121Z,24.30
2019-01-29T05:20:34.783Z,22.33
2019-01-29T05:23:37.434Z,24.97
2019-01-29T05:26:40.055Z,21.23
2019-01-29T05:29:42.698Z,18.40
2019-01-29T05:32:45.454Z,22.80
2019-01-29T05:35:48.180Z,23.30
2019-01-29T05:38:50.807Z,22.70
2019-01-29T05:41:53.639Z,21.37
2019-01-29T05:44:56.300Z,17.67
2019-01-29T05:47:58.858Z,18.10
2019-01-29T05:51:03.222Z,24.37
2019-01-29T05:54:05.875Z,18.80
2019-01-29T05:57:08.471Z,20.50
2019-01-29T06:00:24.018Z,19.07
2019-01-29T06:03:26.749Z,23.23
2019-01-29T06:06:30.769Z,15.70
2019-01-29T06:09:33.540Z,16.60
2019-01-29T06:12:36.193Z,22.00
2019-01-29T06:15:38.991Z,19.53
2019-01-29T06:18:41.863Z,19.80
2019-01-29T06:21:44.445Z,19.53
2019-01-29T06:24:47.071Z,22.33
2019-01-29T06:27:49.825Z,19.07
2019-01-29T06:30:52.505Z,17.33
2019-01-29T06:33:55.077Z,20.93
2019-01-29T06:36:57.645Z,16.00
2019-01-29T06:40:00.253Z,18.50
2019-01-29T06:43:02.965Z,21.23
2019-01-29T06:46:09.385Z,20.97
2019-01-29T06:49:12.079Z,22.50
2019-01-29T06:52:14.775Z,25.17
2019-01-29T06:55:18.824Z,26.23
2019-01-29T06:58:21.519Z,14.50
2019-01-29T07:01:25.110Z,25.13
2019-01-29T07:04:27.749Z,15.70
2019-01-29T07:07:30.338Z,19.13
2019-01-29T07:10:33.015Z,16.50
2019-01-29T07:13:35.513Z,20.63
2019-01-29T07:16:48.150Z,25.70
2019-01-29T07:19:53.533Z,22.40
2019-01-29T07:22:56.188Z,23.03
2019-01-29T07:25:58.769Z,29.17
2019-01-29T07:29:01.449Z,20.70
2019-01-29T07:32:04.207Z,22.83
2019-01-29T07:35:07.619Z,28.23
2019-01-29T07:38:11.189Z,22.60
2019-01-29T07:41:13.834Z,27.87
2019-01-29T07:44:16.459Z,23.60
2019-01-29T07:47:19.030Z,24.87
2019-01-29T07:50:22.623Z,30.10
2019-01-29T07:53:25.285Z,24.17
2019-01-29T07:56:29.185Z,24.00
2019-01-29T07:59:33.121Z,28.77
2019-01-29T08:02:36.083Z,26.00
2019-01-29T08:05:38.691Z,23.93
2019-01-29T08:08:41.357Z,29.10
2019-01-29T08:11:44.009Z,27.83
2019-01-29T08:14:46.634Z,23.60
2019-01-29T08:17:49.270Z,23.80
2019-01-29T08:20:51.975Z,38.93
2019-01-29T08:23:54.625Z,25.60
2019-01-29T08:26:57.213Z,31.63
2019-01-29T08:29:59.888Z,26.70
2019-01-29T08:33:02.509Z,29.27
2019-01-29T08:36:05.193Z,30.37
2019-01-29T08:39:08.316Z,27.87
2019-01-29T08:42:11.278Z,26.93
2019-01-29T08:45:14.354Z,33.90
2019-01-29T08:48:17.110Z,29.57
2019-01-29T08:51:19.679Z,26.07
2019-01-29T08:54:22.423Z,28.17
2019-01-29T08:57:25.075Z,24.80
2019-01-29T09:00:27.825Z,30.37
2019-01-29T09:03:30.439Z,22.77
2019-01-29T09:06:33.018Z,30.03
2019-01-29T09:09:35.732Z,25.73
2019-01-29T09:12:38.418Z,24.60
2019-01-29T09:15:41.026Z,27.40
2019-01-29T09:18:43.584Z,23.57
2019-01-29T09:21:46.199Z,28.77
2019-01-29T09:24:48.929Z,24.63
2019-01-29T09:27:51.548Z,22.70
2019-01-29T09:30:54.139Z,23.10
2019-01-29T09:33:56.960Z,28.97
2019-01-29T09:36:59.729Z,30.03
2019-01-29T09:40:02.930Z,25.07
2019-01-29T09:43:08.077Z,23.17
2019-01-29T09:46:10.710Z,28.80
2019-01-29T09:49:13.532Z,27.10
2019-01-29T09:52:16.263Z,30.07
2019-01-29T09:55:28.098Z,30.83
2019-01-29T09:58:24.699Z,33.60
2019-01-29T10:01:27.312Z,34.03
2019-01-29T10:04:29.865Z,29.70
2019-01-29T10:07:32.482Z,38.00
2019-01-29T10:10:35.064Z,30.70
2019-01-29T10:13:37.884Z,37.73
2019-01-29T10:16:40.438Z,29.00
2019-01-29T10:19:43.027Z,39.77
2019-01-29T10:22:45.592Z,39.97
2019-01-29T10:25:48.224Z,48.30
2019-01-29T10:28:50.866Z,34.80
2019-01-29T10:31:53.523Z,32.47
2019-01-29T10:34:56.097Z,28.03
2019-01-29T10:37:58.679Z,37.27
2019-01-29T10:41:01.322Z,61.90
2019-01-29T10:44:04.168Z,32.70
2019-01-29T10:47:08.082Z,33.13
2019-01-29T10:50:13.569Z,35.13
2019-01-29T10:53:16.320Z,56.17
2019-01-29T10:56:18.962Z,31.30
2019-01-29T10:59:21.619Z,43.10
2019-01-29T11:02:24.233Z,33.20
2019-01-29T11:05:27.050Z,33.60
2019-01-29T11:08:29.687Z,40.70
2019-01-29T11:11:32.307Z,32.40
2019-01-29T11:14:34.872Z,30.13
2019-01-29T11:17:37.563Z,29.17
2019-01-29T11:20:40.323Z,26.40
2019-01-29T11:23:43.006Z,33.00
2019-01-29T11:26:45.629Z,38.07
2019-01-29T11:29:49.337Z,31.57
2019-01-29T11:32:52.107Z,33.47
2019-01-29T11:35:54.891Z,44.67
2019-01-29T11:38:57.617Z,44.63
2019-01-29T11:42:00.212Z,37.70
2019-01-29T11:45:04.227Z,34.63
2019-01-29T11:48:07.722Z,40.20
2019-01-29T11:51:11.362Z,56.57
2019-01-29T11:54:14.024Z,51.90
2019-01-29T11:57:16.624Z,76.57
2019-01-29T12:00:27.239Z,56.97
2019-01-29T12:03:29.857Z,54.70
2019-01-29T12:06:32.457Z,120.63
2019-01-29T12:09:35.042Z,77.83
2019-01-29T12:12:37.686Z,53.87
2019-01-29T12:15:40.278Z,74.13
2019-01-29T12:18:42.810Z,52.57
2019-01-29T12:21:45.424Z,52.07
2019-01-29T12:24:48.119Z,43.27
2019-01-29T12:27:50.810Z,52.73
2019-01-29T12:30:53.403Z,53.00
2019-01-29T12:33:56.143Z,45.83
2019-01-29T12:36:58.874Z,50.33
2019-01-29T12:40:01.403Z,51.50
2019-01-29T12:43:04.469Z,44.73
2019-01-29T12:46:07.147Z,52.13
2019-01-29T12:49:09.740Z,46.03
2019-01-29T12:52:22.494Z,49.83
2019-01-29T12:55:25.196Z,46.63
2019-01-29T12:58:27.974Z,43.93
2019-01-29T13:01:30.691Z,38.17
2019-01-29T13:04:37.149Z,44.33
2019-01-29T13:07:44.003Z,42.03
2019-01-29T13:10:46.638Z,48.60
2019-01-29T13:13:49.363Z,37.27
2019-01-29T13:16:52.024Z,35.70
2019-01-29T13:19:54.720Z,35.60
2019-01-29T13:22:57.436Z,35.53
2019-01-29T13:26:00.122Z,31.80
2019-01-29T13:29:03.018Z,30.47
2019-01-29T13:32:05.670Z,35.20
2019-01-29T13:35:09.675Z,39.73
2019-01-29T13:38:12.671Z,29.60
2019-01-29T13:41:15.282Z,29.03
2019-01-29T13:44:17.982Z,29.40
2019-01-29T13:47:20.687Z,37.73
2019-01-29T13:50:27.338Z,37.73
2019-01-29T13:53:30.029Z,33.27
2019-01-29T13:56:38.756Z,35.40
2019-01-29T13:59:37.432Z,40.60
2019-01-29T14:02:40.160Z,36.87
2019-01-29T14:05:42.722Z,40.07
2019-01-29T14:08:46.307Z,34.00
2019-01-29T14:11:49.072Z,35.10
2019-01-29T14:14:51.698Z,34.80
2019-01-29T14:17:54.367Z,37.83
2019-01-29T14:20:58.092Z,40.90
2019-01-29T14:24:02.290Z,37.50
2019-01-29T14:27:06.728Z,42.30
2019-01-29T14:30:19.079Z,41.83
2019-01-29T14:33:21.764Z,38.37
2019-01-29T14:36:24.590Z,38.83
2019-01-29T14:39:51.528Z,40.00
2019-01-29T14:42:54.231Z,35.53
2019-01-29T14:45:58.499Z,39.80
2019-01-29T14:49:01.447Z,40.53
2019-01-29T14:52:04.353Z,41.23
2019-01-29T14:55:08.323Z,31.17
2019-01-29T14:58:10.913Z,35.77
2019-01-29T15:01:13.982Z,36.30
2019-01-29T15:04:16.649Z,31.37
2019-01-29T15:07:19.332Z,34.80
2019-01-29T15:10:22.084Z,38.10
2019-01-29T15:13:24.864Z,41.80
2019-01-29T15:16:51.557Z,40.53
2019-01-29T15:19:54.123Z,32.97
2019-01-29T15:22:56.767Z,37.37
2019-01-29T15:25:59.402Z,33.33
2019-01-29T15:29:01.977Z,44.30
2019-01-29T15:32:10.767Z,37.50
2019-01-29T15:35:13.386Z,35.77
2019-01-29T15:38:16.233Z,31.13
2019-01-29T15:41:19.058Z,31.87
2019-01-29T15:44:21.719Z,31.53
2019-01-29T15:47:24.450Z,34.20
2019-01-29T15:50:27.298Z,35.03
2019-01-29T15:53:29.962Z,35.40
2019-01-29T15:56:32.802Z,33.47
2019-01-29T15:59:42.792Z,28.53
2019-01-29T16:02:40.112Z,38.53
2019-01-29T16:05:42.812Z,32.87
2019-01-29T16:08:45.531Z,26.23
2019-01-29T16:11:48.293Z,28.77
2019-01-29T16:14:51.079Z,29.30
2019-01-29T16:17:54.900Z,34.67
2019-01-29T16:20:57.798Z,29.27
2019-01-29T16:24:00.473Z,31.47
2019-01-29T16:27:06.910Z,35.00
2019-01-29T16:30:11.250Z,33.30
2019-01-29T16:33:14.427Z,29.83
2019-01-29T16:36:17.226Z,29.60
2019-01-29T16:39:20.105Z,34.40
2019-01-29T16:42:28.132Z,35.93
2019-01-29T16:45:36.247Z,33.67
2019-01-29T16:48:38.989Z,28.80
2019-01-29T16:51:43.277Z,31.10
2019-01-29T16:54:45.915Z,30.77
2019-01-29T16:57:49.013Z,30.23
2019-01-29T17:00:51.705Z,35.30
2019-01-29T17:03:54.395Z,30.93
2019-01-29T17:06:57.082Z,34.13
2019-01-29T17:09:59.805Z,37.73
2019-01-29T17:13:02.506Z,35.50
2019-01-29T17:16:05.221Z,33.73
2019-01-29T17:19:11.097Z,38.70
2019-01-29T17:22:13.777Z,32.20
2019-01-29T17:25:16.651Z,24.93
2019-01-29T17:28:19.222Z,33.90
2019-01-29T17:31:21.911Z,29.07
2019-01-29T17:34:24.589Z,30.33
2019-01-29T17:37:27.265Z,26.60
2019-01-29T17:40:30.110Z,27.90
2019-01-29T17:43:47.331Z,31.80
2019-01-29T17:46:49.982Z,31.40
2019-01-29T17:49:52.788Z,29.13
2019-01-29T17:52:55.450Z,23.17
2019-01-29T17:55:58.219Z,28.10
2019-01-29T17:59:01.012Z,25.33
2019-01-29T18:02:04.121Z,27.10
2019-01-29T18:05:06.772Z,21.50
2019-01-29T18:08:09.347Z,23.27
2019-01-29T18:11:11.967Z,29.30
2019-01-29T18:14:16.396Z,24.53
2019-01-29T18:17:19.057Z,24.97
2019-01-29T18:20:23.592Z,29.67
2019-01-29T18:23:26.273Z,24.43
2019-01-29T18:26:28.995Z,21.87
2019-01-29T18:29:31.706Z,24.20
2019-01-29T18:32:34.496Z,23.77
2019-01-29T18:35:37.198Z,22.40
2019-01-29T18:38:41.366Z,24.33
2019-01-29T18:41:47.182Z,27.87
2019-01-29T18:44:49.928Z,22.90
2019-01-29T18:47:52.692Z,27.17
2019-01-29T18:50:55.452Z,25.03
2019-01-29T18:53:59.826Z,31.67
2019-01-29T18:57:02.635Z,23.50
2019-01-29T19:00:08.517Z,24.80
2019-01-29T19:03:11.222Z,30.00
2019-01-29T19:06:13.825Z,26.47
2019-01-29T19:09:17.546Z,28.97
2019-01-29T19:12:23.391Z,25.10
2019-01-29T19:15:26.173Z,39.17
2019-01-29T19:18:30.754Z,32.57
2019-01-29T19:21:34.610Z,29.20
2019-01-29T19:24:37.282Z,26.23
2019-01-29T19:27:39.996Z,22.67
2019-01-29T19:30:42.751Z,27.23
2019-01-29T19:33:45.525Z,25.53
2019-01-29T19:36:48.284Z,20.53
2019-01-29T19:39:51.026Z,21.50
2019-01-29T19:42:53.745Z,19.03
2019-01-29T19:45:56.591Z,29.63
2019-01-29T19:48:59.320Z,37.93
2019-01-29T19:52:02.095Z,21.77
2019-01-29T19:55:05.125Z,21.43
2019-01-29T19:58:09.580Z,31.53
2019-01-29T20:01:12.330Z,24.50
2019-01-29T20:04:15.124Z,20.50
2019-01-29T20:07:17.865Z,25.23
2019-01-29T20:10:20.955Z,21.07
2019-01-29T20:13:23.695Z,26.63
2019-01-29T20:16:26.372Z,25.70
2019-01-29T20:19:29.015Z,27.43
2019-01-29T20:22:31.834Z,26.63
2019-01-29T20:25:34.702Z,22.77
2019-01-29T20:28:42.425Z,26.53
2019-01-29T20:31:42.057Z,24.20
2019-01-29T20:34:47.156Z,28.13
2019-01-29T20:37:49.888Z,24.20
2019-01-29T20:40:52.631Z,22.30
2019-01-29T20:43:55.329Z,30.90
2019-01-29T20:46:58.069Z,25.23
2019-01-29T20:50:00.925Z,28.00
2019-01-29T20:53:03.749Z,22.20
2019-01-29T20:56:06.505Z,20.90
2019-01-29T20:59:09.138Z,25.53
2019-01-29T21:02:11.874Z,22.70
2019-01-29T21:05:14.940Z,25.63
2019-01-29T21:08:17.641Z,23.57
2019-01-29T21:11:20.225Z,26.43
2019-01-29T21:14:22.820Z,21.23
2019-01-29T21:17:25.449Z,26.40
2019-01-29T21:20:29.958Z,22.27
2019-01-29T21:23:33.492Z,28.63
2019-01-29T21:26:36.214Z,25.83
2019-01-29T21:29:38.825Z,28.90
2019-01-29T21:32:41.452Z,27.90
2019-01-29T21:35:44.207Z,28.00
2019-01-29T21:38:46.831Z,23.90
2019-01-29T21:41:49.512Z,31.63
2019-01-29T21:44:52.106Z,27.67
2019-01-29T21:47:56.153Z,26.13
2019-01-29T21:50:58.860Z,23.70
2019-01-29T21:54:01.676Z,33.80
2019-01-29T21:57:04.461Z,40.13
2019-01-29T22:00:13.836Z,30.97
2019-01-29T22:03:16.601Z,26.10
2019-01-29T22:06:19.369Z,32.60
2019-01-29T22:09:23.933Z,29.40
2019-01-29T22:12:26.620Z,28.40
2019-01-29T22:15:31.091Z,26.10
2019-01-29T22:18:33.815Z,31.07
2019-01-29T22:21:36.571Z,28.97
2019-01-29T22:24:39.225Z,32.20
2019-01-29T22:27:41.908Z,24.80
2019-01-29T22:30:44.675Z,27.50
2019-01-29T22:33:47.270Z,26.07
2019-01-29T22:36:49.906Z,34.73
2019-01-29T22:39:52.649Z,31.80
2019-01-29T22:42:56.404Z,33.73
2019-01-29T22:45:59.116Z,28.57
2019-01-29T22:49:01.706Z,31.23
2019-01-29T22:52:04.487Z,37.33
2019-01-29T22:55:07.629Z,32.07
2019-01-29T22:58:12.683Z,31.70
2019-01-29T23:01:23.908Z,33.67
2019-01-29T23:04:29.118Z,28.60
2019-01-29T23:07:37.198Z,31.47
2019-01-29T23:10:39.914Z,27.13
2019-01-29T23:13:42.633Z,24.50
2019-01-29T23:16:45.373Z,24.13
2019-01-29T23:19:48.055Z,28.03
2019-01-29T23:22:50.828Z,23.60
2019-01-29T23:25:55.190Z,28.50
2019-01-29T23:28:57.809Z,22.67
2019-01-29T23:32:00.399Z,27.27
2019-01-29T23:35:03.935Z,25.70
2019-01-29T23:38:06.763Z,21.70
2019-01-29T23:41:09.334Z,25.37
2019-01-29T23:44:12.139Z,23.40
2019-01-29T23:47:14.789Z,24.03
2019-01-29T23:50:17.465Z,30.93
2019-01-29T23:53:20.030Z,23.77
2019-01-29T23:56:22.738Z,38.17
2019-01-29T23:59:25.396Z,29.13
